Affton, Missouri
Current Conditions -  °F | °C
As of 2:17 AM on Sunday 26 Oct 2014 (Local Time) from KCPS Reporting Station
Haze Haze  
Wind Chill: 51°   Ceiling: Unl
Heat Index: 51°   Visibility: 2mi
Dew Point: 50°   Wind: 0mph
Humidity: 96%   Direction: NA
Pressure: 30.02"   Gusts: NA
Location:  38.55°N, 90.33°W
Report Text: KCPS 260717Z AUTO 00000KT 2SM BR CLR 11/10 A3002 RMK AO2 T01060100 $
Loading
Personal Weather Stations






























Interactive Weather Map
Tropical Storm Tracking
New forecast layout! Learn more

10-Day Weather Forecast

Advertisements
Track Severe Weather on mobile